Time;durP1;ratioP1;P1;durP2;ratioP2;P2;SDS_P1;SDS_P2;PMS_P1;PMS_P2;Temp;Humidity;BMP_temperature;BMP_pressure;BME280_temperature;BME280_humidity;BME280_pressure;Samples;Min_cycle;Max_cycle;Signal;HPM_P1;HPM_P2
2022/02/02 00:01:40;;;;;;;13.03;6.60;;;7.00;99.90;;;;;;5027074;28;20453;-73
2022/02/02 00:04:29;;;;;;;9.77;6.17;;;7.00;99.90;;;;;;5031471;28;20461;-74
2022/02/02 00:07:29;;;;;;;12.90;7.63;;;7.00;99.90;;;;;;5028924;28;20452;-73
2022/02/02 00:10:36;;;;;;;14.93;6.97;;;7.00;99.90;;;;;;5035851;28;20534;-74
2022/02/02 00:13:36;;;;;;;12.93;6.37;;;7.00;99.90;;;;;;5030379;28;20879;-74
2022/02/02 00:16:45;;;;;;;14.32;5.10;;;7.10;99.90;;;;;;5031574;28;20544;-75
2022/02/02 00:19:40;;;;;;;12.83;5.70;;;7.10;99.90;;;;;;5023559;28;20241;-74
2022/02/02 00:22:33;;;;;;;17.30;6.57;;;7.10;99.90;;;;;;5028731;28;20433;-73
2022/02/02 00:25:22;;;;;;;11.30;6.10;;;7.20;99.90;;;;;;5028027;28;20420;-73
2022/02/02 00:28:08;;;;;;;11.43;5.93;;;7.10;99.90;;;;;;5031694;28;20495;-75
2022/02/02 00:30:59;;;;;;;16.23;6.20;;;7.10;99.90;;;;;;5036886;28;20439;-73
2022/02/02 00:33:49;;;;;;;10.57;5.40;;;7.10;99.90;;;;;;5031093;28;20491;-73
2022/02/02 00:36:44;;;;;;;14.73;4.63;;;7.10;99.90;;;;;;5027498;28;20456;-74
2022/02/02 00:39:31;;;;;;;14.27;5.30;;;7.10;99.90;;;;;;5034330;28;20993;-73
2022/02/02 00:42:16;;;;;;;12.40;5.13;;;7.10;99.90;;;;;;5031241;28;20221;-75
2022/02/02 00:45:02;;;;;;;10.38;4.00;;;7.20;99.90;;;;;;5032789;28;21122;-73
2022/02/02 00:47:50;;;;;;;15.77;5.47;;;7.20;99.90;;;;;;5027852;28;20208;-73
2022/02/02 00:50:36;;;;;;;25.10;4.50;;;7.20;99.90;;;;;;5028034;28;20498;-73
2022/02/02 00:53:22;;;;;;;13.93;4.27;;;7.20;99.90;;;;;;5023054;28;20476;-73
2022/02/02 00:56:08;;;;;;;10.23;3.20;;;7.20;99.90;;;;;;5026313;28;20410;-74
2022/02/02 00:58:53;;;;;;;15.40;3.43;;;7.20;99.90;;;;;;5021614;28;20435;-73
2022/02/02 01:01:40;;;;;;;14.77;4.80;;;7.20;99.90;;;;;;5029490;28;20991;-74
2022/02/02 01:04:28;;;;;;;16.70;3.67;;;7.30;99.90;;;;;;5027877;28;20452;-73
2022/02/02 01:07:21;;;;;;;17.03;3.37;;;7.30;99.90;;;;;;5025122;28;20444;-74
2022/02/02 01:10:14;;;;;;;13.10;3.70;;;7.30;99.90;;;;;;5028787;28;20476;-73
2022/02/02 01:13:19;;;;;;;17.07;3.60;;;7.30;99.90;;;;;;5030669;28;20578;-74
2022/02/02 01:19:26;;;;;;;11.43;4.00;;;7.30;99.90;;;;;;5030685;28;20510;-73
2022/02/02 01:22:18;;;;;;;9.10;3.37;;;7.30;99.90;;;;;;5026439;28;20443;-73
2022/02/02 01:28:09;;;;;;;8.50;3.03;;;7.30;99.90;;;;;;5027255;28;20447;-75
2022/02/02 01:30:55;;;;;;;18.33;3.30;;;7.30;99.90;;;;;;5037613;28;20518;-73
2022/02/02 01:33:41;;;;;;;10.10;4.07;;;7.30;99.90;;;;;;5040694;28;20913;-74
2022/02/02 01:36:27;;;;;;;8.83;3.27;;;7.30;99.90;;;;;;5030675;28;20978;-73
2022/02/02 01:39:16;;;;;;;9.93;2.90;;;7.30;99.90;;;;;;5030940;28;20446;-73
2022/02/02 01:42:04;;;;;;;19.02;4.03;;;7.30;99.90;;;;;;5038809;28;20460;-73
2022/02/02 01:44:57;;;;;;;8.57;2.90;;;7.40;99.90;;;;;;5033441;28;20205;-73
2022/02/02 01:47:53;;;;;;;11.83;4.07;;;7.40;99.90;;;;;;5042978;28;20420;-73
2022/02/02 01:50:53;;;;;;;11.25;3.00;;;7.40;99.90;;;;;;5021630;28;20435;-74
2022/02/02 01:53:46;;;;;;;19.70;4.03;;;7.40;99.90;;;;;;5033613;28;20569;-73
2022/02/02 01:56:34;;;;;;;13.13;3.53;;;7.40;99.90;;;;;;5046264;28;20420;-73
2022/02/02 01:59:38;;;;;;;17.30;4.07;;;7.40;99.90;;;;;;5033411;28;20499;-72
2022/02/02 02:02:24;;;;;;;18.37;3.57;;;7.40;99.90;;;;;;5043374;28;20823;-73
2022/02/02 02:05:10;;;;;;;15.60;4.30;;;7.40;99.90;;;;;;5026911;28;20945;-73
2022/02/02 02:07:56;;;;;;;31.93;4.60;;;7.30;99.90;;;;;;5033942;28;20323;-74
2022/02/02 02:10:42;;;;;;;26.87;4.43;;;7.40;99.90;;;;;;5034795;28;20444;-73
2022/02/02 02:13:58;;;;;;;21.10;4.70;;;7.40;99.90;;;;;;5027741;28;20494;-73
2022/02/02 02:16:45;;;;;;;18.57;3.90;;;7.40;99.90;;;;;;5022301;28;20440;-73
2022/02/02 02:19:32;;;;;;;13.93;3.57;;;7.40;99.90;;;;;;5039006;28;20849;-73
2022/02/02 02:22:22;;;;;;;13.47;3.30;;;7.40;99.90;;;;;;5041264;28;20792;-74
2022/02/02 02:25:09;;;;;;;12.23;3.20;;;7.40;99.90;;;;;;5043017;28;20792;-74
2022/02/02 02:28:04;;;;;;;11.03;3.30;;;7.40;99.90;;;;;;5031350;28;20436;-73
2022/02/02 02:30:53;;;;;;;6.90;2.73;;;7.40;99.90;;;;;;5028342;28;20467;-74
2022/02/02 02:33:58;;;;;;;18.40;4.20;;;7.30;99.90;;;;;;5034541;28;20448;-74
2022/02/02 02:39:54;;;;;;;18.87;3.80;;;7.30;99.90;;;;;;5033437;28;20975;-74
2022/02/02 02:58:07;;;;;;;15.73;4.00;;;7.50;99.90;;;;;;5034075;28;20493;-75
2022/02/02 03:01:12;;;;;;;18.50;3.50;;;7.50;99.90;;;;;;5024168;28;20541;-74
2022/02/02 03:31:42;;;;;;;37.03;5.17;;;7.30;99.90;;;;;;5028610;28;20193;-74
2022/02/02 03:56:29;;;;;;;17.30;4.20;;;7.20;99.90;;;;;;5080776;28;20578;-73
2022/02/02 03:59:32;;;;;;;17.00;3.37;;;7.20;99.90;;;;;;5100173;28;20462;-73
2022/02/02 04:02:47;;;;;;;14.57;3.70;;;7.20;99.90;;;;;;5096417;28;20507;-74
2022/02/02 04:05:38;;;;;;;16.93;3.50;;;7.20;99.90;;;;;;5097310;28;20433;-73
2022/02/02 04:08:28;;;;;;;21.83;4.27;;;7.20;99.90;;;;;;5105400;28;20434;-73
2022/02/02 04:11:18;;;;;;;18.63;4.30;;;7.20;99.90;;;;;;5107753;28;21167;-73
2022/02/02 04:54:20;;;;;;;25.70;5.13;;;7.40;99.90;;;;;;5009976;28;20889;-73
2022/02/02 05:06:25;;;;;;;17.30;4.70;;;7.30;99.90;;;;;;5011858;28;20812;-74
2022/02/02 05:09:24;;;;;;;29.03;4.60;;;7.30;99.90;;;;;;5009768;28;20456;-74
2022/02/02 05:18:43;;;;;;;24.37;5.57;;;7.20;99.90;;;;;;5005493;28;20523;-74
2022/02/02 05:49:05;;;;;;;23.50;5.67;;;7.30;99.90;;;;;;5008580;28;20545;-74
2022/02/02 05:51:51;;;;;;;29.20;5.07;;;7.20;99.90;;;;;;5004334;28;20469;-74
2022/02/02 05:54:36;;;;;;;21.17;5.27;;;7.20;99.90;;;;;;5009162;28;20812;-73
2022/02/02 05:57:23;;;;;;;24.30;5.30;;;7.30;99.90;;;;;;5018075;28;20959;-73
2022/02/02 06:00:11;;;;;;;17.17;5.03;;;7.30;99.90;;;;;;5008348;28;20579;-74
2022/02/02 06:03:02;;;;;;;19.60;5.93;;;7.30;99.90;;;;;;5020292;28;20430;-75
2022/02/02 06:05:48;;;;;;;20.17;5.00;;;7.30;99.90;;;;;;5015977;28;20440;-74
2022/02/02 06:08:35;;;;;;;16.63;4.13;;;7.30;99.90;;;;;;5018803;28;20445;-73
2022/02/02 06:11:23;;;;;;;21.57;4.83;;;7.40;99.90;;;;;;5016652;28;21121;-74
2022/02/02 06:14:09;;;;;;;22.35;5.35;;;7.40;99.90;;;;;;5010128;28;20445;-74
2022/02/02 06:17:02;;;;;;;21.58;3.95;;;7.40;99.90;;;;;;5005609;28;20314;-74
2022/02/02 06:19:47;;;;;;;23.07;4.77;;;7.40;99.90;;;;;;5018122;28;20240;-74
2022/02/02 06:22:33;;;;;;;25.47;5.40;;;7.40;99.90;;;;;;5010916;28;20499;-75
2022/02/02 06:25:23;;;;;;;25.27;4.80;;;7.40;99.90;;;;;;5010337;28;20433;-74
2022/02/02 06:28:09;;;;;;;16.20;3.93;;;7.50;99.90;;;;;;5018096;28;20422;-74
2022/02/02 06:30:58;;;;;;;15.67;4.47;;;7.50;99.90;;;;;;5021085;28;20461;-74
2022/02/02 06:33:52;;;;;;;18.37;4.30;;;7.60;99.90;;;;;;5009444;28;20541;-73
2022/02/02 06:36:40;;;;;;;18.83;4.70;;;7.50;99.90;;;;;;5015132;28;20413;-74
2022/02/02 06:39:28;;;;;;;28.07;5.10;;;7.50;99.90;;;;;;5019549;28;20640;-73
2022/02/02 06:42:14;;;;;;;18.97;4.37;;;7.50;99.90;;;;;;5014356;28;20799;-74
2022/02/02 06:45:01;;;;;;;27.70;5.73;;;7.50;99.90;;;;;;5007936;28;20535;-73
2022/02/02 06:47:48;;;;;;;30.87;5.27;;;7.50;99.90;;;;;;5010577;28;20958;-73
2022/02/02 06:50:39;;;;;;;26.97;5.20;;;7.60;99.90;;;;;;5006216;28;20461;-74
2022/02/02 06:53:32;;;;;;;27.70;5.23;;;7.50;99.90;;;;;;5001474;28;20521;-73
2022/02/02 06:56:32;;;;;;;27.60;5.60;;;7.50;99.90;;;;;;5011492;28;20449;-73
2022/02/02 06:59:33;;;;;;;24.83;4.87;;;7.60;99.90;;;;;;5011721;28;20515;-73
2022/02/02 07:02:34;;;;;;;18.57;4.37;;;7.60;99.90;;;;;;5007187;28;20441;-73
2022/02/02 07:05:34;;;;;;;18.57;4.67;;;7.60;99.90;;;;;;5008095;28;20483;-73
2022/02/02 07:08:42;;;;;;;22.47;5.47;;;7.50;99.90;;;;;;5007596;28;20433;-73
2022/02/02 07:11:43;;;;;;;17.10;4.87;;;7.60;99.90;;;;;;5009520;28;20562;-74
2022/02/02 07:14:42;;;;;;;25.63;5.60;;;7.50;99.90;;;;;;5009060;28;20450;-74
2022/02/02 07:17:45;;;;;;;29.20;5.30;;;7.50;99.90;;;;;;5009765;28;20457;-73
2022/02/02 07:20:39;;;;;;;25.67;4.68;;;7.50;99.90;;;;;;5011259;28;20610;-73
2022/02/02 07:23:53;;;;;;;17.10;4.33;;;7.50;99.90;;;;;;5003933;28;20723;-76
2022/02/02 07:29:56;;;;;;;25.13;5.40;;;7.50;99.90;;;;;;4980064;28;20488;-74
2022/02/02 07:32:49;;;;;;;16.17;4.07;;;7.60;99.90;;;;;;5001301;28;20458;-73
2022/02/02 07:35:50;;;;;;;30.97;6.07;;;7.60;99.90;;;;;;5013048;28;20429;-72
2022/02/02 07:38:50;;;;;;;23.27;4.93;;;7.70;99.90;;;;;;5004843;28;20535;-73
2022/02/02 07:41:38;;;;;;;30.13;5.80;;;7.60;99.90;;;;;;5005115;28;20554;-73
2022/02/02 07:44:31;;;;;;;22.45;8.27;;;7.60;99.90;;;;;;5008391;28;20441;-72
2022/02/02 07:47:19;;;;;;;21.30;5.27;;;7.70;99.90;;;;;;5002837;28;20195;-72
2022/02/02 07:50:08;;;;;;;29.87;5.67;;;7.70;99.90;;;;;;5005357;28;20468;-73
2022/02/02 07:52:53;;;;;;;21.23;7.17;;;7.70;99.90;;;;;;5001646;28;21025;-74
2022/02/02 07:55:44;;;;;;;30.63;8.67;;;7.70;99.90;;;;;;4995889;28;20574;-74
2022/02/02 07:58:30;;;;;;;28.03;6.83;;;7.70;99.90;;;;;;5012807;28;20457;-77
2022/02/02 08:01:17;;;;;;;22.83;6.00;;;7.70;99.90;;;;;;5009975;28;20431;-73
2022/02/02 08:04:02;;;;;;;39.63;7.43;;;7.70;99.90;;;;;;4999929;28;20442;-74
2022/02/02 08:06:52;;;;;;;20.80;8.10;;;7.70;99.90;;;;;;5011804;28;20514;-74
2022/02/02 08:09:43;;;;;;;27.97;6.50;;;7.70;99.90;;;;;;5008760;28;20832;-74
2022/02/02 08:12:34;;;;;;;25.20;6.00;;;7.70;99.90;;;;;;5011195;28;20461;-73
2022/02/02 08:15:21;;;;;;;24.67;5.70;;;7.70;99.90;;;;;;5004132;28;20801;-73
2022/02/02 08:18:07;;;;;;;14.67;4.80;;;7.70;99.90;;;;;;5009757;28;20552;-74
2022/02/02 08:20:53;;;;;;;35.90;8.70;;;7.80;99.90;;;;;;5005784;28;20473;-76
2022/02/02 08:23:38;;;;;;;27.23;9.73;;;7.80;99.90;;;;;;5005524;28;20569;-74
2022/02/02 08:26:24;;;;;;;27.73;6.60;;;7.90;99.90;;;;;;5011643;28;20841;-72
2022/02/02 08:29:12;;;;;;;20.25;6.85;;;8.00;99.90;;;;;;5006606;28;20475;-73
2022/02/02 08:31:58;;;;;;;29.90;5.67;;;8.10;99.90;;;;;;5006291;28;20243;-72
2022/02/02 08:34:48;;;;;;;28.00;7.67;;;8.00;99.90;;;;;;5001281;28;20445;-74
2022/02/02 08:37:36;;;;;;;31.97;7.20;;;8.10;99.90;;;;;;5008155;28;20581;-73
2022/02/02 08:40:27;;;;;;;65.50;23.07;;;8.10;99.90;;;;;;5003925;28;20523;-73
2022/02/02 08:43:16;;;;;;;50.33;14.97;;;8.20;99.90;;;;;;5002207;28;20983;-75
2022/02/02 08:46:08;;;;;;;39.53;10.47;;;8.20;99.90;;;;;;4994189;28;20808;-73
2022/02/02 08:48:56;;;;;;;33.40;10.33;;;8.10;99.90;;;;;;5009085;28;20453;-74
2022/02/02 08:51:45;;;;;;;28.87;7.00;;;8.20;99.90;;;;;;5001490;28;20454;-73
2022/02/02 08:54:35;;;;;;;23.43;7.23;;;8.20;99.90;;;;;;5009639;28;20456;-72
2022/02/02 08:57:40;;;;;;;28.50;9.07;;;8.30;99.90;;;;;;5009112;28;20457;-72
2022/02/02 09:00:28;;;;;;;28.23;6.10;;;8.30;99.90;;;;;;5005332;28;20482;-73
2022/02/02 09:06:19;;;;;;;95.80;34.53;;;8.20;99.90;;;;;;5011520;28;21227;-73
2022/02/02 09:09:11;;;;;;;32.50;9.40;;;8.20;99.90;;;;;;5014005;28;20923;-73
2022/02/02 09:24:21;;;;;;;29.30;6.10;;;8.20;99.90;;;;;;5011779;28;20930;-72
2022/02/02 09:36:13;;;;;;;24.90;6.07;;;8.30;99.90;;;;;;5007641;28;20438;-73
2022/02/02 09:39:07;;;;;;;28.10;5.67;;;8.30;99.90;;;;;;4999155;28;20963;-74
2022/02/02 09:42:01;;;;;;;30.73;5.50;;;8.30;99.90;;;;;;5002068;28;21072;-74
2022/02/02 09:44:53;;;;;;;27.48;5.55;;;8.40;99.90;;;;;;5007752;28;20543;-75
2022/02/02 09:47:45;;;;;;;17.00;5.37;;;8.30;99.90;;;;;;5008821;28;20273;-73
2022/02/02 09:50:35;;;;;;;26.70;7.00;;;8.30;99.90;;;;;;5003623;28;20488;-72
2022/02/02 09:53:33;;;;;;;20.03;5.10;;;8.30;99.90;;;;;;5005384;28;20600;-73
2022/02/02 09:56:35;;;;;;;30.27;5.60;;;8.40;99.90;;;;;;5013795;28;20982;-73
2022/02/02 09:59:33;;;;;;;27.10;5.87;;;8.40;99.90;;;;;;5009077;28;20847;-73
2022/02/02 10:02:49;;;;;;;27.77;6.13;;;8.40;99.90;;;;;;5006652;28;20433;-72
2022/02/02 10:05:44;;;;;;;23.07;5.93;;;8.40;99.90;;;;;;5018166;28;20472;-74
2022/02/02 10:12:20;;;;;;;23.10;5.20;;;8.50;99.90;;;;;;4948357;28;20516;-73
2022/02/02 10:15:15;;;;;;;18.77;4.87;;;8.70;99.90;;;;;;4947726;28;20535;-74
2022/02/02 10:18:05;;;;;;;25.47;6.10;;;8.80;99.90;;;;;;5013016;28;20455;-73
2022/02/02 10:20:52;;;;;;;25.67;4.83;;;8.90;99.90;;;;;;5054276;22;20494;-85
2022/02/02 10:23:41;;;;;;;18.90;5.10;;;8.90;99.90;;;;;;5067317;28;20450;-85
2022/02/02 10:26:27;;;;;;;24.33;5.50;;;9.00;99.90;;;;;;5062071;28;20441;-85
2022/02/02 10:29:15;;;;;;;22.77;4.80;;;9.00;99.90;;;;;;5061772;28;20434;-85
2022/02/02 10:32:00;;;;;;;24.83;6.23;;;9.00;99.90;;;;;;5062845;28;21098;-85
2022/02/02 10:34:46;;;;;;;20.47;5.50;;;9.10;99.90;;;;;;5066695;28;20585;-85
2022/02/02 10:37:33;;;;;;;19.07;4.97;;;9.10;99.90;;;;;;5061790;28;20505;-85
2022/02/02 10:40:37;;;;;;;20.27;6.97;;;9.10;99.90;;;;;;5065896;28;20970;-85
2022/02/02 10:43:33;;;;;;;38.97;6.93;;;9.10;99.90;;;;;;5058251;28;20968;-85
2022/02/02 10:46:25;;;;;;;23.60;6.00;;;9.10;99.90;;;;;;5061884;28;20574;-85
2022/02/02 10:49:18;;;;;;;23.73;6.57;;;9.20;99.90;;;;;;5062822;28;20435;-85
2022/02/02 10:52:10;;;;;;;22.67;4.90;;;9.10;99.90;;;;;;5061856;28;20439;-85
2022/02/02 10:55:29;;;;;;;30.43;8.50;;;9.10;99.90;;;;;;5065347;28;20584;-84
2022/02/02 10:58:27;;;;;;;19.63;4.57;;;9.00;99.90;;;;;;5065270;28;20455;-85
2022/02/02 11:01:32;;;;;;;23.77;6.13;;;9.10;99.90;;;;;;5064393;28;20995;-85
2022/02/02 11:07:23;;;;;;;22.87;4.87;;;9.30;99.90;;;;;;5059776;28;20500;-84
2022/02/02 11:10:12;;;;;;;23.40;5.13;;;9.60;99.90;;;;;;5062272;28;20833;-85
2022/02/02 11:12:59;;;;;;;51.73;13.70;;;9.70;99.90;;;;;;5062379;28;20470;-85
2022/02/02 11:15:50;;;;;;;44.73;13.77;;;9.80;99.90;;;;;;5061893;28;20463;-85
2022/02/02 11:18:40;;;;;;;20.20;4.60;;;10.00;99.90;;;;;;5062296;28;21037;-85
2022/02/02 11:21:32;;;;;;;20.63;4.40;;;10.40;99.90;;;;;;5064040;28;20504;-85
2022/02/02 11:24:19;;;;;;;17.43;4.87;;;10.50;99.90;;;;;;5062263;28;20430;-85
2022/02/02 11:27:05;;;;;;;14.30;3.93;;;10.60;99.90;;;;;;5060384;28;21033;-85
2022/02/02 11:29:50;;;;;;;21.33;5.23;;;10.60;99.90;;;;;;5062014;28;20466;-85
2022/02/02 11:32:42;;;;;;;21.30;4.97;;;10.80;99.90;;;;;;5064112;28;21048;-84
2022/02/02 11:35:36;;;;;;;11.33;3.63;;;10.80;99.90;;;;;;5061346;28;21015;-85
2022/02/02 11:38:41;;;;;;;10.63;3.70;;;10.80;99.90;;;;;;5058737;28;20447;-85
2022/02/02 11:41:41;;;;;;;11.43;3.97;;;10.60;99.90;;;;;;5063216;28;20442;-85
2022/02/02 11:44:41;;;;;;;34.63;15.20;;;10.40;99.90;;;;;;5056017;28;21696;-85
2022/02/02 11:47:44;;;;;;;14.40;6.00;;;10.30;99.90;;;;;;5059911;28;20514;-85
2022/02/02 11:50:49;;;;;;;25.70;6.90;;;10.30;99.90;;;;;;5063483;28;20455;-85
2022/02/02 11:53:57;;;;;;;18.07;5.23;;;10.20;99.90;;;;;;5057032;28;20553;-83
2022/02/02 11:57:22;;;;;;;15.40;5.23;;;10.20;99.90;;;;;;5064533;28;20459;-85
2022/02/02 12:00:17;;;;;;;17.73;3.57;;;10.30;99.90;;;;;;5060292;28;20635;-84
2022/02/02 12:06:29;;;;;;;15.60;3.70;;;10.20;99.90;;;;;;5064216;28;20475;-86
2022/02/02 12:09:24;;;;;;;14.43;3.77;;;10.10;99.90;;;;;;5067707;28;20970;-85
2022/02/02 12:56:15;;;;;;;13.00;5.77;;;9.70;99.90;;;;;;5062408;28;20504;-84
2022/02/02 13:02:24;;;;;;;16.47;3.47;;;9.70;99.90;;;;;;5021859;28;20469;-86
2022/02/02 13:05:12;;;;;;;16.60;3.30;;;9.70;99.90;;;;;;5065911;28;20474;-85
2022/02/02 13:08:00;;;;;;;31.83;4.27;;;9.70;99.90;;;;;;5065958;28;21032;-85
2022/02/02 13:10:45;;;;;;;12.73;3.40;;;9.60;99.90;;;;;;5065449;28;20448;-86
2022/02/02 13:13:31;;;;;;;10.30;3.57;;;9.60;99.90;;;;;;5060316;28;20599;-85
2022/02/02 13:16:25;;;;;;;28.23;6.17;;;9.60;99.90;;;;;;5069565;28;20587;-86
2022/02/02 13:19:15;;;;;;;12.90;3.83;;;9.60;99.90;;;;;;5065547;28;20456;-84
2022/02/02 13:22:09;;;;;;;14.37;4.33;;;9.50;99.90;;;;;;5063492;28;20462;-85
2022/02/02 13:24:54;;;;;;;22.77;4.40;;;9.60;99.90;;;;;;5066055;28;20451;-85
2022/02/02 13:27:47;;;;;;;30.20;7.30;;;9.60;99.90;;;;;;5062215;28;21180;-85
2022/02/02 13:30:38;;;;;;;22.60;5.87;;;9.60;99.90;;;;;;5056946;28;20446;-85
2022/02/02 13:33:35;;;;;;;21.80;4.80;;;9.70;99.90;;;;;;5062671;28;20464;-86
2022/02/02 13:36:43;;;;;;;23.63;4.50;;;9.70;99.90;;;;;;5064717;28;20508;-85
2022/02/02 13:43:22;;;;;;;16.70;4.73;;;9.70;99.90;;;;;;5067442;28;20446;-87
2022/02/02 13:46:23;;;;;;;14.00;3.87;;;9.80;99.90;;;;;;5065866;28;20617;-86
2022/02/02 13:49:38;;;;;;;9.40;2.37;;;9.80;99.90;;;;;;5061971;28;20821;-85
2022/02/02 13:52:36;;;;;;;16.73;4.90;;;9.80;99.90;;;;;;5066517;28;20450;-85
2022/02/02 13:55:39;;;;;;;11.23;3.23;;;9.90;99.90;;;;;;5061520;28;20491;-84
2022/02/02 13:58:41;;;;;;;18.47;4.47;;;9.90;99.90;;;;;;5062287;28;20446;-86
2022/02/02 14:01:35;;;;;;;17.83;4.40;;;10.00;99.90;;;;;;5064938;28;20813;-85
2022/02/02 14:04:34;;;;;;;21.80;3.97;;;10.00;99.90;;;;;;5067764;28;20971;-85
2022/02/02 14:07:27;;;;;;;15.33;3.67;;;10.20;99.90;;;;;;5108963;22;20504;-68
2022/02/02 14:10:29;;;;;;;11.70;3.20;;;10.40;99.90;;;;;;5099802;28;21143;-68
2022/02/02 14:31:44;;;;;;;16.17;5.10;;;10.30;99.90;;;;;;5106099;28;20442;-69
2022/02/02 14:34:30;;;;;;;14.63;4.13;;;10.30;99.90;;;;;;5106971;28;21014;-69
2022/02/02 14:37:20;;;;;;;18.00;4.23;;;10.30;99.90;;;;;;5104097;28;20436;-68
2022/02/02 14:40:15;;;;;;;21.70;5.43;;;10.30;99.90;;;;;;5105221;28;20601;-69
2022/02/02 14:43:04;;;;;;;16.10;5.20;;;10.20;99.90;;;;;;5102460;28;20449;-69
2022/02/02 14:45:55;;;;;;;17.93;4.67;;;10.20;99.00;;;;;;5104021;28;20441;-69
2022/02/02 14:48:47;;;;;;;17.87;5.13;;;10.20;99.30;;;;;;5100124;28;20543;-69
2022/02/02 14:51:51;;;;;;;18.60;5.37;;;10.20;99.90;;;;;;5105492;28;20436;-69
2022/02/02 14:54:52;;;;;;;18.23;4.17;;;10.20;99.90;;;;;;5107766;28;21147;-69
2022/02/02 15:28:44;;;;;;;19.73;4.77;;;10.00;99.90;;;;;;5102936;28;20962;-70
2022/02/02 15:31:31;;;;;;;15.27;3.17;;;9.90;99.90;;;;;;5103755;28;20461;-71
2022/02/02 15:34:23;;;;;;;22.13;4.70;;;9.80;99.90;;;;;;5104221;28;21099;-70
2022/02/02 15:40:15;;;;;;;19.03;3.80;;;9.90;99.90;;;;;;5105081;28;20527;-70
2022/02/02 15:43:14;;;;;;;18.77;4.90;;;9.80;99.90;;;;;;5102782;28;20440;-70
2022/02/02 15:55:43;;;;;;;27.73;6.40;;;9.40;99.90;;;;;;5102472;28;20852;-70
2022/02/02 15:58:29;;;;;;;27.57;5.10;;;9.20;99.90;;;;;;5099223;28;20448;-70
2022/02/02 16:04:23;;;;;;;11.43;3.20;;;9.00;99.90;;;;;;5105809;28;20457;-70
2022/02/02 16:07:12;;;;;;;22.13;4.13;;;8.90;99.90;;;;;;5101192;28;20844;-70
2022/02/02 16:10:05;;;;;;;17.63;4.83;;;8.70;99.90;;;;;;5102895;28;20997;-71
2022/02/02 16:12:51;;;;;;;14.20;4.50;;;8.60;99.90;;;;;;5101194;28;20433;-70
2022/02/02 16:15:37;;;;;;;21.33;4.27;;;8.50;99.90;;;;;;5097640;28;20911;-70
2022/02/02 16:18:35;;;;;;;13.97;3.57;;;8.30;99.90;;;;;;5100126;28;20446;-70
2022/02/02 16:24:48;;;;;;;11.10;3.37;;;8.10;99.90;;;;;;5092002;28;20440;-88
2022/02/02 16:36:49;;;;;;;12.10;3.00;;;7.90;99.90;;;;;;5092943;28;20521;-88
2022/02/02 16:39:45;;;;;;;10.00;3.87;;;7.80;99.90;;;;;;5102458;28;20453;-89
2022/02/02 16:45:38;;;;;;;17.70;3.43;;;7.80;99.90;;;;;;5095726;28;20498;-88
2022/02/02 16:48:25;;;;;;;17.43;4.13;;;7.80;99.90;;;;;;5106554;28;20437;-90
2022/02/02 16:51:12;;;;;;;18.43;3.67;;;7.80;99.90;;;;;;5107099;28;20824;-88
2022/02/02 16:54:00;;;;;;;11.50;4.33;;;7.70;99.90;;;;;;5105178;28;20494;-88
2022/02/02 16:57:02;;;;;;;17.00;4.10;;;7.80;99.90;;;;;;5095324;28;20544;-87
2022/02/02 17:30:34;;;;;;;14.33;3.70;;;7.60;99.90;;;;;;5099714;28;20433;-88
2022/02/02 17:33:26;;;;;;;19.33;3.83;;;7.60;99.90;;;;;;5100452;28;20436;-88
2022/02/02 17:36:20;;;;;;;8.67;3.97;;;7.60;99.90;;;;;;5097512;28;20539;-88
2022/02/02 17:39:10;;;;;;;19.90;5.10;;;7.60;99.90;;;;;;5101176;28;20458;-88
2022/02/02 17:42:14;;;;;;;9.37;4.63;;;7.50;99.90;;;;;;5107486;28;20515;-89
2022/02/02 17:45:26;;;;;;;21.30;4.20;;;7.50;99.90;;;;;;5097334;28;20429;-89
2022/02/02 18:01:09;;;;;;;15.23;4.27;;;7.60;99.90;;;;;;5101490;28;20487;-93
2022/02/02 18:19:10;;;;;;;13.27;4.37;;;7.20;99.90;;;;;;5082900;28;20452;-88
2022/02/02 18:21:57;;;;;;;15.67;5.07;;;7.10;99.90;;;;;;5101098;27;20436;-89
2022/02/02 18:24:56;;;;;;;18.10;4.73;;;7.10;99.90;;;;;;5102883;27;20446;-89
2022/02/02 18:27:48;;;;;;;14.17;4.70;;;7.00;99.90;;;;;;5096990;28;20805;-89
2022/02/02 18:31:03;;;;;;;18.83;6.90;;;7.10;99.90;;;;;;5102996;28;20437;-88
2022/02/02 18:33:53;;;;;;;14.43;5.80;;;7.00;99.90;;;;;;5098367;28;20438;-88
2022/02/02 18:36:48;;;;;;;18.60;5.80;;;6.90;99.90;;;;;;5100607;28;20830;-89
2022/02/02 18:48:48;;;;;;;15.53;5.53;;;7.00;99.90;;;;;;5074988;28;20454;-88
2022/02/02 18:52:01;;;;;;;11.73;5.43;;;7.10;99.90;;;;;;5101028;28;20446;-89
2022/02/02 18:54:58;;;;;;;13.53;5.90;;;7.10;99.90;;;;;;5095579;28;20469;-88
2022/02/02 18:57:55;;;;;;;13.40;5.20;;;7.20;99.90;;;;;;5105317;28;20445;-89
2022/02/02 19:00:52;;;;;;;15.17;7.43;;;7.20;99.90;;;;;;5109264;27;20451;-89
2022/02/02 19:38:19;;;;;;;18.37;6.83;;;6.90;99.90;;;;;;5101084;27;20863;-88
2022/02/02 19:56:49;;;;;;;19.70;7.37;;;6.50;99.90;;;;;;5071045;28;20837;-88
2022/02/02 20:02:58;;;;;;;17.80;7.70;;;6.40;99.90;;;;;;5094329;28;20421;-88
2022/02/02 20:08:25;;;;;;;19.37;8.00;;;6.40;99.90;;;;;;5042418;28;20291;-74
2022/02/02 20:11:17;;;;;;;13.93;8.50;;;6.40;99.90;;;;;;5037747;28;20618;-73
2022/02/02 20:14:04;;;;;;;18.87;7.40;;;6.40;99.90;;;;;;5037863;28;20562;-73
2022/02/02 20:16:49;;;;;;;12.73;7.60;;;6.40;99.90;;;;;;5042862;28;20498;-74
2022/02/02 20:19:37;;;;;;;15.70;7.77;;;6.40;99.90;;;;;;5039262;28;20519;-73
2022/02/02 20:22:27;;;;;;;19.30;8.10;;;6.30;99.90;;;;;;5032880;28;20606;-73
2022/02/02 20:25:15;;;;;;;27.30;8.60;;;6.30;99.90;;;;;;5040218;28;20521;-73
2022/02/02 20:28:06;;;;;;;11.90;8.27;;;6.20;99.90;;;;;;5039181;28;20443;-73
2022/02/02 20:30:53;;;;;;;15.73;8.30;;;6.30;99.90;;;;;;5039059;28;20544;-73
2022/02/02 20:33:39;;;;;;;23.77;7.80;;;6.30;99.90;;;;;;5038994;28;20573;-73
2022/02/02 20:36:25;;;;;;;24.93;9.37;;;6.30;99.90;;;;;;5043153;28;20431;-75
2022/02/02 20:39:23;;;;;;;16.77;9.00;;;6.30;99.90;;;;;;5039893;28;20439;-73
2022/02/02 20:42:10;;;;;;;18.00;8.65;;;6.20;99.90;;;;;;5037410;28;20819;-74
2022/02/02 20:45:11;;;;;;;14.90;8.27;;;6.10;99.90;;;;;;5047852;28;20205;-75
2022/02/02 21:00:25;;;;;;;27.10;11.10;;;6.00;99.90;;;;;;5036986;28;20543;-74
2022/02/02 21:03:32;;;;;;;26.73;11.33;;;6.00;99.90;;;;;;5041856;28;20598;-75
2022/02/02 21:06:24;;;;;;;32.30;11.23;;;6.10;99.90;;;;;;5041148;28;20504;-74
2022/02/02 21:09:28;;;;;;;24.80;11.10;;;6.10;99.90;;;;;;5039436;28;20205;-74
2022/02/02 21:15:25;;;;;;;21.00;8.83;;;6.40;99.90;;;;;;4998302;28;20525;-74
2022/02/02 21:18:15;;;;;;;18.87;10.97;;;6.30;99.90;;;;;;5047245;28;20510;-75
2022/02/02 21:21:05;;;;;;;18.30;11.97;;;6.20;99.90;;;;;;5041140;28;20900;-74
2022/02/02 21:27:16;;;;;;;25.83;12.37;;;6.20;99.90;;;;;;5042247;28;20479;-74
2022/02/02 21:30:02;;;;;;;18.27;12.63;;;6.20;99.90;;;;;;5045085;28;20484;-76
2022/02/02 21:32:48;;;;;;;22.83;11.90;;;6.20;99.90;;;;;;5039955;28;20819;-75
2022/02/02 21:35:36;;;;;;;18.73;8.77;;;6.30;99.90;;;;;;5038956;28;20535;-75
2022/02/02 21:38:30;;;;;;;16.13;9.93;;;6.30;99.90;;;;;;5038997;28;20472;-76
2022/02/02 21:41:22;;;;;;;23.13;10.50;;;6.20;99.90;;;;;;5039595;28;20550;-75
2022/02/02 21:44:09;;;;;;;22.67;9.73;;;6.30;99.90;;;;;;5035911;28;20447;-75
2022/02/02 21:46:57;;;;;;;25.13;9.53;;;6.30;99.90;;;;;;5044871;28;20436;-75
2022/02/02 21:49:45;;;;;;;19.60;11.03;;;6.30;99.90;;;;;;5041200;28;20447;-76
2022/02/02 21:52:32;;;;;;;17.20;9.70;;;6.40;99.90;;;;;;5043896;28;20446;-74
2022/02/02 21:55:18;;;;;;;18.87;9.77;;;6.30;99.90;;;;;;5047403;28;20455;-74
2022/02/02 21:58:05;;;;;;;17.53;9.00;;;6.30;99.90;;;;;;5041688;28;20514;-75
2022/02/02 22:00:51;;;;;;;21.20;9.43;;;6.30;99.90;;;;;;5042196;28;20537;-75
2022/02/02 22:03:37;;;;;;;18.63;10.17;;;6.30;99.90;;;;;;5041211;28;20600;-75
2022/02/02 22:06:22;;;;;;;19.20;9.70;;;6.30;99.90;;;;;;5041889;28;20460;-74
2022/02/02 22:09:09;;;;;;;20.53;9.57;;;6.30;99.90;;;;;;5038230;28;20558;-76
2022/02/02 22:11:55;;;;;;;24.03;10.80;;;6.30;99.90;;;;;;5045624;28;20615;-74
2022/02/02 22:14:44;;;;;;;16.40;10.40;;;6.30;99.90;;;;;;5040150;28;20530;-75
2022/02/02 22:17:31;;;;;;;20.63;10.00;;;6.30;99.90;;;;;;5039411;28;20257;-74
2022/02/02 22:20:18;;;;;;;19.83;9.60;;;6.40;99.90;;;;;;5039161;28;20478;-76
2022/02/02 22:23:04;;;;;;;19.20;9.60;;;6.40;99.90;;;;;;5042474;28;20440;-74
2022/02/02 22:25:51;;;;;;;19.03;9.07;;;6.40;99.90;;;;;;5044497;28;20519;-73
2022/02/02 22:28:38;;;;;;;16.17;9.80;;;6.30;99.90;;;;;;5040923;28;20614;-75
2022/02/02 22:31:24;;;;;;;21.97;9.13;;;6.30;99.90;;;;;;5037374;28;20479;-76
2022/02/02 22:34:10;;;;;;;23.50;10.80;;;6.30;99.90;;;;;;5043384;28;20447;-76
2022/02/02 22:36:56;;;;;;;14.57;10.20;;;6.20;99.90;;;;;;5037300;28;20420;-76
2022/02/02 22:39:43;;;;;;;18.40;10.07;;;6.30;99.90;;;;;;5043658;28;20690;-76
2022/02/02 22:42:31;;;;;;;20.93;9.73;;;6.40;99.90;;;;;;5047075;28;20415;-76
2022/02/02 22:45:16;;;;;;;17.53;10.10;;;6.40;99.90;;;;;;5045839;28;20890;-76